createdAt,value
2018-12-03T00:00:26.798Z,15.03
2018-12-03T00:03:03.298Z,16.07
2018-12-03T00:05:31.566Z,16.23
2018-12-03T00:07:59.810Z,14.23
2018-12-03T00:10:28.095Z,14.27
2018-12-03T00:12:57.455Z,16.07
2018-12-03T00:15:26.637Z,16.10
2018-12-03T00:17:54.946Z,13.67
2018-12-03T00:20:23.280Z,14.37
2018-12-03T00:22:51.561Z,13.43
2018-12-03T00:25:19.807Z,18.83
2018-12-03T00:27:52.806Z,13.33
2018-12-03T00:30:21.322Z,13.03
2018-12-03T00:32:49.990Z,17.27
2018-12-03T00:35:18.262Z,12.47
2018-12-03T00:37:46.536Z,13.90
2018-12-03T00:40:14.762Z,14.67
2018-12-03T00:42:43.024Z,13.23
2018-12-03T00:45:11.252Z,11.27
2018-12-03T00:47:39.518Z,13.67
2018-12-03T00:50:07.785Z,16.10
2018-12-03T00:52:36.090Z,16.43
2018-12-03T00:55:04.930Z,16.70
2018-12-03T00:57:33.294Z,19.13
2018-12-03T01:00:01.663Z,15.73
2018-12-03T01:02:29.921Z,16.30
2018-12-03T01:04:58.838Z,15.93
2018-12-03T01:07:27.071Z,17.90
2018-12-03T01:09:55.351Z,20.37
2018-12-03T01:12:23.624Z,16.07
2018-12-03T01:14:51.849Z,18.97
2018-12-03T01:17:20.111Z,16.57
2018-12-03T01:19:48.383Z,17.90
2018-12-03T01:22:16.630Z,19.03
2018-12-03T01:24:44.877Z,19.10
2018-12-03T01:27:13.219Z,18.37
2018-12-03T01:29:41.499Z,21.03
2018-12-03T01:32:09.751Z,18.13
2018-12-03T01:34:38.033Z,17.60
2018-12-03T01:37:06.310Z,20.43
2018-12-03T01:39:34.577Z,19.30
2018-12-03T01:42:02.822Z,18.07
2018-12-03T01:44:31.027Z,18.73
2018-12-03T01:46:59.305Z,20.93
2018-12-03T01:49:27.618Z,18.80
2018-12-03T01:51:55.911Z,17.40
2018-12-03T01:54:24.259Z,20.50
2018-12-03T01:56:52.513Z,18.10
2018-12-03T01:59:20.750Z,17.47
2018-12-03T02:01:49.020Z,19.57
2018-12-03T02:04:17.262Z,20.97
2018-12-03T02:06:45.510Z,18.80
2018-12-03T02:09:13.791Z,19.20
2018-12-03T02:11:42.098Z,18.73
2018-12-03T02:14:11.319Z,20.73
2018-12-03T02:16:39.653Z,22.50
2018-12-03T02:19:07.951Z,20.17
2018-12-03T02:21:36.246Z,20.10
2018-12-03T02:24:04.883Z,21.73
2018-12-03T02:26:33.126Z,19.30
2018-12-03T02:29:02.178Z,22.97
2018-12-03T02:31:30.451Z,21.20
2018-12-03T02:33:58.698Z,24.87
2018-12-03T02:36:26.965Z,24.57
2018-12-03T02:38:55.254Z,23.33
2018-12-03T02:41:23.498Z,25.10
2018-12-03T02:43:51.726Z,23.63
2018-12-03T02:46:19.985Z,24.37
2018-12-03T02:48:48.221Z,25.80
2018-12-03T02:51:16.458Z,25.73
2018-12-03T02:53:44.747Z,23.77
2018-12-03T02:56:13.039Z,21.23
2018-12-03T02:58:41.671Z,23.77
2018-12-03T03:01:09.916Z,26.27
2018-12-03T03:03:38.226Z,24.90
2018-12-03T03:06:07.417Z,23.67
2018-12-03T03:08:35.646Z,23.03
2018-12-03T03:11:04.330Z,24.82
2018-12-03T03:13:32.589Z,28.73
2018-12-03T03:16:00.856Z,23.97
2018-12-03T03:18:29.102Z,23.57
2018-12-03T03:20:57.367Z,31.00
2018-12-03T03:23:25.652Z,27.47
2018-12-03T03:25:54.064Z,25.73
2018-12-03T03:28:22.350Z,25.63
2018-12-03T03:30:50.588Z,27.27
2018-12-03T03:33:18.827Z,29.53
2018-12-03T03:35:47.692Z,29.10
2018-12-03T03:38:15.947Z,25.10
2018-12-03T03:40:44.202Z,28.57
2018-12-03T03:43:12.514Z,26.40
2018-12-03T03:45:40.807Z,25.13
2018-12-03T03:48:09.090Z,26.03
2018-12-03T03:50:38.045Z,29.73
2018-12-03T03:53:06.331Z,26.90
2018-12-03T03:55:34.572Z,27.27
2018-12-03T03:58:02.852Z,28.63
2018-12-03T04:00:31.122Z,30.20
2018-12-03T04:02:59.439Z,28.50
2018-12-03T04:05:27.743Z,29.17
2018-12-03T04:07:55.953Z,37.00
2018-12-03T04:10:24.190Z,30.30
2018-12-03T04:12:52.875Z,30.03
2018-12-03T04:15:21.130Z,26.20
2018-12-03T04:17:49.368Z,29.97
2018-12-03T04:20:18.874Z,27.27
2018-12-03T04:22:50.484Z,29.17
2018-12-03T04:25:18.746Z,27.77
2018-12-03T04:27:47.593Z,28.30
2018-12-03T04:30:17.081Z,29.07
2018-12-03T04:32:45.337Z,28.17
2018-12-03T04:35:13.993Z,27.40
2018-12-03T04:37:42.874Z,27.13
2018-12-03T04:40:12.219Z,28.20
2018-12-03T04:42:40.454Z,27.83
2018-12-03T04:45:11.917Z,26.57
2018-12-03T04:47:40.184Z,26.63
2018-12-03T04:50:12.700Z,27.73
2018-12-03T04:52:40.998Z,27.60
2018-12-03T04:55:09.916Z,26.40
2018-12-03T04:57:38.614Z,27.57
2018-12-03T05:00:12.726Z,27.87
2018-12-03T05:02:40.953Z,25.90
2018-12-03T05:05:09.930Z,26.77
2018-12-03T05:07:39.141Z,26.87
2018-12-03T05:10:11.945Z,27.97
2018-12-03T05:12:40.205Z,28.60
2018-12-03T05:15:10.531Z,28.30
2018-12-03T05:17:39.773Z,32.37
2018-12-03T05:20:09.554Z,31.27
2018-12-03T05:22:38.058Z,28.57
2018-12-03T05:25:07.765Z,26.83
2018-12-03T05:27:36.078Z,28.33
2018-12-03T05:30:06.666Z,31.87
2018-12-03T05:32:34.925Z,28.63
2018-12-03T05:35:03.174Z,27.97
2018-12-03T05:37:31.538Z,28.73
2018-12-03T05:40:00.200Z,29.03
2018-12-03T05:42:28.857Z,28.67
2018-12-03T05:44:57.161Z,27.50
2018-12-03T05:47:25.462Z,27.57
2018-12-03T05:49:53.707Z,26.47
2018-12-03T05:52:21.951Z,27.60
2018-12-03T05:54:50.201Z,27.03
2018-12-03T05:57:18.483Z,25.67
2018-12-03T05:59:46.738Z,24.37
2018-12-03T06:02:14.979Z,25.17
2018-12-03T06:04:43.231Z,23.20
2018-12-03T06:07:11.527Z,23.23
2018-12-03T06:09:39.727Z,24.43
2018-12-03T06:12:07.963Z,24.30
2018-12-03T06:14:36.234Z,22.53
2018-12-03T06:17:04.477Z,22.20
2018-12-03T06:19:32.738Z,22.13
2018-12-03T06:22:01.009Z,21.47
2018-12-03T06:24:30.006Z,20.40
2018-12-03T06:26:58.290Z,20.93
2018-12-03T06:29:26.526Z,21.20
2018-12-03T06:31:54.843Z,20.13
2018-12-03T06:34:23.134Z,20.23
2018-12-03T06:36:51.400Z,18.73
2018-12-03T06:39:19.669Z,22.13
2018-12-03T06:41:47.879Z,18.60
2018-12-03T06:44:16.154Z,19.30
2018-12-03T06:46:44.420Z,18.40
2018-12-03T06:49:12.699Z,17.27
2018-12-03T06:51:41.033Z,15.97
2018-12-03T06:54:09.318Z,18.43
2018-12-03T06:56:37.554Z,16.57
2018-12-03T06:59:06.342Z,16.80
2018-12-03T07:01:34.616Z,16.00
2018-12-03T07:04:02.919Z,14.77
2018-12-03T07:06:31.184Z,13.97
2018-12-03T07:08:59.544Z,12.70
2018-12-03T07:11:27.793Z,13.17
2018-12-03T07:13:56.054Z,13.37
2018-12-03T07:16:24.321Z,10.27
2018-12-03T07:18:52.559Z,12.80
2018-12-03T07:21:20.854Z,11.47
2018-12-03T07:23:49.719Z,11.03
2018-12-03T07:26:18.034Z,10.33
2018-12-03T07:28:46.259Z,17.23
2018-12-03T07:31:14.518Z,12.77
2018-12-03T07:33:42.786Z,13.83
2018-12-03T07:36:11.086Z,10.03
2018-12-03T07:38:39.375Z,16.60
2018-12-03T07:41:07.642Z,17.53
2018-12-03T07:43:35.870Z,15.97
2018-12-03T07:46:04.149Z,13.93
2018-12-03T07:48:32.407Z,14.63
2018-12-03T07:51:00.671Z,14.53
2018-12-03T07:53:28.895Z,12.20
2018-12-03T07:55:57.183Z,15.93
2018-12-03T07:58:25.399Z,17.97
2018-12-03T08:00:55.102Z,10.23
2018-12-03T08:03:23.376Z,14.53
2018-12-03T08:05:51.651Z,17.37
2018-12-03T08:08:19.916Z,16.30
2018-12-03T08:10:49.794Z,15.43
2018-12-03T08:13:18.999Z,14.73
2018-12-03T08:15:48.085Z,14.70
2018-12-03T08:18:17.985Z,12.13
2018-12-03T08:20:53.562Z,13.07
2018-12-03T08:23:30.194Z,16.90
2018-12-03T08:25:58.597Z,15.50
2018-12-03T08:28:26.857Z,10.97
2018-12-03T08:30:55.119Z,15.70
2018-12-03T08:33:23.416Z,16.23
2018-12-03T08:35:51.653Z,16.07
2018-12-03T08:38:19.877Z,14.60
2018-12-03T08:40:49.084Z,18.10
2018-12-03T08:43:17.366Z,14.67
2018-12-03T08:45:46.340Z,16.60
2018-12-03T08:48:14.611Z,13.33
2018-12-03T08:50:44.936Z,16.07
2018-12-03T08:53:13.241Z,17.13
2018-12-03T08:55:41.642Z,15.00
2018-12-03T08:58:13.059Z,14.87
2018-12-03T09:00:41.650Z,20.93
2018-12-03T09:03:18.543Z,16.00
2018-12-03T09:05:46.827Z,18.00
2018-12-03T09:08:15.097Z,18.10
2018-12-03T09:10:43.770Z,13.13
2018-12-03T09:13:18.465Z,14.60
2018-12-03T09:15:55.633Z,20.20
2018-12-03T09:18:24.227Z,15.83
2018-12-03T09:20:52.519Z,13.27
2018-12-03T09:23:20.903Z,17.83
2018-12-03T09:25:49.117Z,18.27
2018-12-03T09:28:17.341Z,16.93
2018-12-03T09:30:45.583Z,15.50
2018-12-03T09:33:13.848Z,14.20
2018-12-03T09:35:42.110Z,15.53
2018-12-03T09:38:10.340Z,15.77
2018-12-03T09:40:38.580Z,17.40
2018-12-03T09:43:06.832Z,16.67
2018-12-03T09:45:35.182Z,18.10
2018-12-03T09:48:03.396Z,18.70
2018-12-03T09:50:31.643Z,17.90
2018-12-03T09:52:59.895Z,19.83
2018-12-03T09:55:31.485Z,19.10
2018-12-03T09:58:18.751Z,15.40
2018-12-03T10:00:47.032Z,20.23
2018-12-03T10:03:18.082Z,18.30
2018-12-03T10:05:49.739Z,15.67
2018-12-03T10:08:18.852Z,17.93
2018-12-03T10:10:49.482Z,18.17
2018-12-03T10:13:17.734Z,16.30
2018-12-03T10:15:46.003Z,22.23
2018-12-03T10:18:14.241Z,19.87
2018-12-03T10:20:46.643Z,15.60
2018-12-03T10:23:14.896Z,16.10
2018-12-03T10:25:45.143Z,16.07
2018-12-03T10:28:13.364Z,17.35
2018-12-03T10:30:41.634Z,16.87
2018-12-03T10:33:10.198Z,21.40
2018-12-03T10:35:39.136Z,16.73
2018-12-03T10:38:12.319Z,18.57
2018-12-03T10:40:44.198Z,14.57
2018-12-03T10:43:12.725Z,15.47
2018-12-03T10:45:41.002Z,18.90
2018-12-03T10:48:09.222Z,19.37
2018-12-03T10:50:37.503Z,16.13
2018-12-03T10:53:06.040Z,19.00
2018-12-03T10:55:37.191Z,20.80
2018-12-03T10:58:06.570Z,26.30
2018-12-03T11:00:40.381Z,19.77
2018-12-03T11:03:16.467Z,18.43
2018-12-03T11:06:23.066Z,21.47
2018-12-03T11:08:51.366Z,22.33
2018-12-03T11:11:20.030Z,19.30
2018-12-03T11:13:48.295Z,20.60
2018-12-03T11:16:29.490Z,21.77
2018-12-03T11:18:57.710Z,19.30
2018-12-03T11:21:26.813Z,28.60
2018-12-03T11:23:55.095Z,20.47
2018-12-03T11:26:30.793Z,18.13
2018-12-03T11:28:59.194Z,16.70
2018-12-03T11:31:30.097Z,18.67
2018-12-03T11:33:58.334Z,22.17
2018-12-03T11:36:33.046Z,20.07
2018-12-03T11:40:06.370Z,17.23
2018-12-03T11:42:36.563Z,21.57
2018-12-03T11:45:06.654Z,17.43
2018-12-03T11:47:34.943Z,22.17
2018-12-03T11:50:03.190Z,16.03
2018-12-03T11:52:31.531Z,14.93
2018-12-03T11:54:59.809Z,14.17
2018-12-03T11:57:28.102Z,16.23
2018-12-03T11:59:56.346Z,14.63
2018-12-03T12:02:24.598Z,15.43
2018-12-03T12:04:52.843Z,18.93
2018-12-03T12:07:21.086Z,18.50
2018-12-03T12:09:49.343Z,19.10
2018-12-03T12:12:17.587Z,13.60
2018-12-03T12:14:45.867Z,19.20
2018-12-03T12:17:14.171Z,16.13
2018-12-03T12:19:42.483Z,19.23
2018-12-03T12:22:10.772Z,15.00
2018-12-03T12:24:39.015Z,20.50
2018-12-03T12:27:08.445Z,16.33
2018-12-03T12:29:36.696Z,18.53
2018-12-03T12:32:05.118Z,18.87
2018-12-03T12:34:33.351Z,19.47
2018-12-03T12:37:01.622Z,18.80
2018-12-03T12:39:29.891Z,19.73
2018-12-03T12:41:58.166Z,22.37
2018-12-03T12:44:26.443Z,16.43
2018-12-03T12:46:54.849Z,15.17
2018-12-03T12:49:23.163Z,13.80
2018-12-03T12:51:51.780Z,17.93
2018-12-03T12:54:19.766Z,18.97
2018-12-03T12:56:48.026Z,20.20
2018-12-03T12:59:16.279Z,20.07
2018-12-03T13:01:44.571Z,19.07
2018-12-03T13:04:12.799Z,17.37
2018-12-03T13:06:41.072Z,20.47
2018-12-03T13:09:10.446Z,12.47
2018-12-03T13:11:39.600Z,20.17
2018-12-03T13:14:09.913Z,16.60
2018-12-03T13:16:38.157Z,21.83
2018-12-03T13:19:07.891Z,20.03
2018-12-03T13:21:36.170Z,22.37
2018-12-03T13:24:04.712Z,23.93
2018-12-03T13:26:34.599Z,28.73
2018-12-03T13:29:02.859Z,19.03
2018-12-03T13:31:31.675Z,30.67
2018-12-03T13:33:59.952Z,21.93
2018-12-03T13:36:28.250Z,18.03
2018-12-03T13:38:56.519Z,20.03
2018-12-03T13:41:24.827Z,37.37
2018-12-03T13:43:53.127Z,23.97
2018-12-03T13:46:21.484Z,22.00
2018-12-03T13:48:49.726Z,22.40
2018-12-03T13:51:18.018Z,18.47
2018-12-03T13:53:46.314Z,23.33
2018-12-03T13:56:14.632Z,21.80
2018-12-03T13:58:42.938Z,25.17
2018-12-03T14:01:11.238Z,24.63
2018-12-03T14:03:40.835Z,24.43
2018-12-03T14:06:19.698Z,19.93
2018-12-03T14:08:59.505Z,21.30
2018-12-03T14:11:31.947Z,21.93
2018-12-03T14:14:11.626Z,24.93
2018-12-03T14:16:53.290Z,22.93
2018-12-03T14:19:26.138Z,28.60
2018-12-03T14:22:02.488Z,23.23
2018-12-03T14:24:30.722Z,24.83
2018-12-03T14:26:59.105Z,18.13
2018-12-03T14:29:27.386Z,23.00
2018-12-03T14:31:55.659Z,22.83
2018-12-03T14:34:27.069Z,20.73
2018-12-03T14:36:54.034Z,25.50
2018-12-03T14:39:22.308Z,20.73
2018-12-03T14:41:50.616Z,21.03
2018-12-03T14:44:18.923Z,21.50
2018-12-03T14:46:47.142Z,21.27
2018-12-03T14:49:15.411Z,27.17
2018-12-03T14:51:43.654Z,24.87
2018-12-03T14:54:11.934Z,22.67
2018-12-03T14:56:40.220Z,24.80
2018-12-03T14:59:08.483Z,22.90
2018-12-03T15:01:36.741Z,21.17
2018-12-03T15:04:10.814Z,25.70
2018-12-03T15:06:39.365Z,22.23
2018-12-03T15:09:08.622Z,23.10
2018-12-03T15:11:36.887Z,24.83
2018-12-03T15:14:05.782Z,22.90
2018-12-03T15:16:34.287Z,20.57
2018-12-03T15:19:02.521Z,28.43
2018-12-03T15:21:30.750Z,24.77
2018-12-03T15:23:59.095Z,19.77
2018-12-03T15:26:34.089Z,20.60
2018-12-03T15:29:02.402Z,22.13
2018-12-03T15:31:30.661Z,18.63
2018-12-03T15:33:59.935Z,29.77
2018-12-03T15:36:28.214Z,20.70
2018-12-03T15:38:56.498Z,20.83
2018-12-03T15:41:25.077Z,20.80
2018-12-03T15:43:53.353Z,20.20
2018-12-03T15:46:21.644Z,24.50
2018-12-03T15:48:49.890Z,21.40
2018-12-03T15:51:18.143Z,20.13
2018-12-03T15:53:46.410Z,26.10
2018-12-03T15:56:14.681Z,21.93
2018-12-03T15:58:42.959Z,23.67
2018-12-03T16:01:14.440Z,18.30
2018-12-03T16:03:39.784Z,26.23
2018-12-03T16:06:08.018Z,21.70
2018-12-03T16:08:36.246Z,21.83
2018-12-03T16:11:04.511Z,23.93
2018-12-03T16:13:32.774Z,21.83
2018-12-03T16:16:01.082Z,20.50
2018-12-03T16:18:29.420Z,24.00
2018-12-03T16:20:57.781Z,20.40
2018-12-03T16:23:26.076Z,24.80
2018-12-03T16:25:54.324Z,33.67
2018-12-03T16:28:22.665Z,24.83
2018-12-03T16:30:51.027Z,26.57
2018-12-03T16:33:19.292Z,23.97
2018-12-03T16:35:47.577Z,19.10
2018-12-03T16:38:15.858Z,19.40
2018-12-03T16:40:44.114Z,19.30
2018-12-03T16:43:12.388Z,22.60
2018-12-03T16:45:40.765Z,19.17
2018-12-03T16:48:09.855Z,19.37
2018-12-03T16:50:38.648Z,25.27
2018-12-03T16:53:06.935Z,20.30
2018-12-03T16:55:35.210Z,27.60
2018-12-03T16:58:03.500Z,24.87
2018-12-03T17:00:31.782Z,25.77
2018-12-03T17:03:00.053Z,18.97
2018-12-03T17:05:28.359Z,27.17
2018-12-03T17:07:56.669Z,22.57
2018-12-03T17:10:24.955Z,20.20
2018-12-03T17:12:54.226Z,25.83
2018-12-03T17:15:22.489Z,20.93
2018-12-03T17:17:50.788Z,25.43
2018-12-03T17:20:30.554Z,25.90
2018-12-03T17:23:04.778Z,22.87
2018-12-03T17:25:39.472Z,20.77
2018-12-03T17:28:07.848Z,22.67
2018-12-03T17:30:36.138Z,26.17
2018-12-03T17:33:04.430Z,23.10
2018-12-03T17:35:32.808Z,27.77
2018-12-03T17:38:01.080Z,17.53
2018-12-03T17:40:30.444Z,19.98
2018-12-03T17:42:59.317Z,24.37
2018-12-03T17:45:28.162Z,20.50
2018-12-03T17:47:57.584Z,19.03
2018-12-03T17:50:25.945Z,21.23
2018-12-03T17:52:54.234Z,25.10
2018-12-03T17:55:25.275Z,24.92
2018-12-03T17:57:53.560Z,28.37
2018-12-03T18:00:21.906Z,25.80
2018-12-03T18:02:50.174Z,24.03
2018-12-03T18:05:18.493Z,26.63
2018-12-03T18:07:46.766Z,20.23
2018-12-03T18:10:15.624Z,25.23
2018-12-03T18:12:44.069Z,21.13
2018-12-03T18:15:13.863Z,20.07
2018-12-03T18:17:42.233Z,27.10
2018-12-03T18:20:10.589Z,25.33
2018-12-03T18:22:38.934Z,27.80
2018-12-03T18:25:07.772Z,27.17
2018-12-03T18:27:36.165Z,27.97
2018-12-03T18:30:07.147Z,21.50
2018-12-03T18:32:35.547Z,29.00
2018-12-03T18:35:03.958Z,27.00
2018-12-03T18:37:32.352Z,24.67
2018-12-03T18:40:00.682Z,28.20
2018-12-03T18:42:30.135Z,28.67
2018-12-03T18:44:58.863Z,27.27
2018-12-03T18:47:27.890Z,29.37
2018-12-03T18:50:01.025Z,29.03
2018-12-03T18:52:29.432Z,26.30
2018-12-03T18:54:58.060Z,31.47
2018-12-03T18:57:26.414Z,26.52
2018-12-03T18:59:54.776Z,23.80
2018-12-03T19:02:23.452Z,25.70
2018-12-03T19:04:53.040Z,20.87
2018-12-03T19:07:21.614Z,28.90
2018-12-03T19:09:50.018Z,26.30
2018-12-03T19:12:19.435Z,28.83
2018-12-03T19:14:47.749Z,26.63
2018-12-03T19:17:17.128Z,30.37
2018-12-03T19:19:45.737Z,29.53
2018-12-03T19:22:14.804Z,28.03
2018-12-03T19:24:43.171Z,27.13
2018-12-03T19:27:11.519Z,23.77
2018-12-03T19:29:39.885Z,25.83
2018-12-03T19:32:08.931Z,28.33
2018-12-03T19:34:37.335Z,26.77
2018-12-03T19:37:05.696Z,27.73
2018-12-03T19:39:34.045Z,19.67
2018-12-03T19:42:02.459Z,23.80
2018-12-03T19:44:31.267Z,24.57
2018-12-03T19:46:59.738Z,30.90
2018-12-03T19:49:29.534Z,27.53
2018-12-03T19:51:59.806Z,24.73
2018-12-03T19:54:28.187Z,31.13
2018-12-03T19:56:58.183Z,31.07
2018-12-03T19:59:29.259Z,24.07
2018-12-03T20:01:57.655Z,28.50
2018-12-03T20:04:32.276Z,27.13
2018-12-03T20:07:00.760Z,28.67
2018-12-03T20:09:29.162Z,21.53
2018-12-03T20:11:58.094Z,29.20
2018-12-03T20:14:28.265Z,25.80
2018-12-03T20:16:58.560Z,26.17
2018-12-03T20:19:27.278Z,22.93
2018-12-03T20:21:55.893Z,22.67
2018-12-03T20:24:26.114Z,28.00
2018-12-03T20:27:02.544Z,25.50
2018-12-03T20:29:39.819Z,24.83
2018-12-03T20:32:20.835Z,26.97
2018-12-03T20:35:04.183Z,22.60
2018-12-03T20:37:42.837Z,19.97
2018-12-03T20:40:22.812Z,19.53
2018-12-03T20:43:12.524Z,24.33
2018-12-03T20:45:51.975Z,24.37
2018-12-03T20:48:28.008Z,21.80
2018-12-03T20:51:05.340Z,23.40
2018-12-03T20:56:23.083Z,18.35
2018-12-03T20:58:51.462Z,15.93
2018-12-03T21:01:20.576Z,17.43
2018-12-03T21:03:49.289Z,17.70
2018-12-03T21:06:18.078Z,16.47
2018-12-03T21:08:46.997Z,18.50
2018-12-03T21:11:15.357Z,16.40
2018-12-03T21:13:43.718Z,17.33
2018-12-03T21:16:12.584Z,18.00
2018-12-03T21:18:41.289Z,23.93
2018-12-03T21:21:10.992Z,15.17
2018-12-03T21:23:40.608Z,13.17
2018-12-03T21:26:09.313Z,12.67
2018-12-03T21:28:37.704Z,10.53
2018-12-03T21:31:06.001Z,10.43
2018-12-03T21:33:34.308Z,7.83
2018-12-03T21:36:02.629Z,12.43
2018-12-03T21:38:31.986Z,9.90
2018-12-03T21:41:32.185Z,7.30
2018-12-03T21:43:59.731Z,11.37
2018-12-03T21:46:27.276Z,9.93
2018-12-03T21:48:54.841Z,9.23
2018-12-03T21:51:22.427Z,8.87
2018-12-03T21:53:49.957Z,9.60
2018-12-03T21:56:17.535Z,10.10
2018-12-03T21:58:45.085Z,9.20
2018-12-03T22:01:12.593Z,7.17
2018-12-03T22:03:40.143Z,9.10
2018-12-03T22:06:07.668Z,9.87
2018-12-03T22:08:35.264Z,7.67
2018-12-03T22:11:02.803Z,9.07
2018-12-03T22:13:30.327Z,8.80
2018-12-03T22:15:57.924Z,8.77
2018-12-03T22:18:25.449Z,5.93
2018-12-03T22:20:52.967Z,8.53
2018-12-03T22:23:20.531Z,6.77
2018-12-03T22:25:48.049Z,7.00
2018-12-03T22:28:15.602Z,6.43
2018-12-03T22:30:43.132Z,8.17
2018-12-03T22:33:10.663Z,9.00
2018-12-03T22:35:38.187Z,10.60
2018-12-03T22:38:05.722Z,6.20
2018-12-03T22:40:33.278Z,9.18
2018-12-03T22:43:00.795Z,6.87
2018-12-03T22:45:28.325Z,7.80
2018-12-03T22:47:55.895Z,6.17
2018-12-03T22:50:23.397Z,9.93
2018-12-03T22:52:50.920Z,9.80
2018-12-03T22:55:18.455Z,10.30
2018-12-03T22:57:45.952Z,10.30
2018-12-03T23:00:15.599Z,8.37
2018-12-03T23:02:43.247Z,7.70
2018-12-03T23:05:10.836Z,9.07
2018-12-03T23:07:38.375Z,11.73
2018-12-03T23:10:06.023Z,10.10
2018-12-03T23:12:33.536Z,8.23
2018-12-03T23:15:01.211Z,9.33
2018-12-03T23:17:28.902Z,12.37
2018-12-03T23:19:56.415Z,8.70
2018-12-03T23:22:23.924Z,8.53
2018-12-03T23:24:51.439Z,9.03
2018-12-03T23:27:18.938Z,10.47
2018-12-03T23:29:46.451Z,10.40
2018-12-03T23:32:13.954Z,12.17
2018-12-03T23:34:41.447Z,9.33
2018-12-03T23:37:08.993Z,12.13
2018-12-03T23:39:36.662Z,9.00
2018-12-03T23:42:04.235Z,12.03
2018-12-03T23:44:31.764Z,7.10
2018-12-03T23:47:00.311Z,11.63
2018-12-03T23:49:27.825Z,8.73
2018-12-03T23:51:55.360Z,11.40
2018-12-03T23:54:22.896Z,12.87
2018-12-03T23:56:50.467Z,14.20
2018-12-03T23:59:17.994Z,9.10
